Terminal Aerodrome Forecast
Issued by NWS

Home | Current Version | Previous Version | Text Only | Print | Product List | Glossary On
Versions: 1 2 3 4 5 6 7 8 9 10 11 12 13 14 15
000
FTUS43 KOAX 012340
TAFSNY
TAF
KSNY 012340Z 0200/0224 17014G24KT P6SM VCTS SCT080CB
      TEMPO 0200/0202 VRB22G30KT 3SM TSRA BKN050CB
     FM020200 VRB06KT P6SM SCT100
     FM022000 07009G16KT P6SM BKN250=

USA.gov is the U.S. government's official web portal to all federal, state and local government web resources and services.